createdAt,value
2018-07-31T00:00:14.189Z,5.40
2018-07-31T00:01:14.202Z,5.50
2018-07-31T00:02:14.262Z,5.10
2018-07-31T00:03:14.271Z,5.00
2018-07-31T00:04:14.281Z,5.60
2018-07-31T00:05:14.303Z,5.10
2018-07-31T00:06:14.322Z,5.30
2018-07-31T00:07:14.339Z,5.40
2018-07-31T00:08:14.362Z,5.40
2018-07-31T00:09:14.384Z,5.10
2018-07-31T00:10:14.409Z,5.20
2018-07-31T00:11:14.442Z,5.20
2018-07-31T00:12:14.478Z,5.70
2018-07-31T00:13:14.471Z,5.40
2018-07-31T00:14:14.495Z,5.30
2018-07-31T00:15:14.528Z,5.60
2018-07-31T00:16:14.545Z,5.50
2018-07-31T00:17:14.559Z,5.00
2018-07-31T00:18:14.590Z,5.60
2018-07-31T00:19:14.604Z,5.50
2018-07-31T00:20:14.651Z,5.60
2018-07-31T00:21:14.651Z,5.60
2018-07-31T00:22:14.683Z,5.70
2018-07-31T00:23:14.698Z,5.20
2018-07-31T00:24:14.722Z,5.40
2018-07-31T00:25:14.758Z,5.50
2018-07-31T00:26:14.767Z,5.20
2018-07-31T00:27:14.783Z,5.50
2018-07-31T00:28:14.813Z,5.80
2018-07-31T00:29:14.850Z,5.60
2018-07-31T00:30:14.856Z,5.60
2018-07-31T00:31:14.871Z,5.60
2018-07-31T00:32:14.904Z,6.00
2018-07-31T00:33:14.941Z,5.60
2018-07-31T00:34:14.956Z,5.90
2018-07-31T00:35:14.971Z,5.40
2018-07-31T00:36:14.989Z,5.90
2018-07-31T00:37:15.029Z,5.30
2018-07-31T00:38:15.033Z,5.00
2018-07-31T00:39:15.052Z,5.60
2018-07-31T00:40:15.086Z,5.90
2018-07-31T00:41:15.101Z,5.30
2018-07-31T00:42:15.127Z,5.70
2018-07-31T00:43:15.142Z,5.70
2018-07-31T00:44:15.162Z,5.40
2018-07-31T00:45:15.183Z,5.40
2018-07-31T00:46:15.220Z,5.70
2018-07-31T00:47:15.242Z,5.20
2018-07-31T00:48:15.254Z,5.70
2018-07-31T00:49:15.284Z,5.70
2018-07-31T00:50:15.299Z,6.10
2018-07-31T00:51:15.323Z,5.60
2018-07-31T00:52:15.348Z,5.70
2018-07-31T00:53:15.366Z,5.60
2018-07-31T00:54:15.388Z,5.40
2018-07-31T00:55:15.414Z,5.60
2018-07-31T00:56:15.428Z,5.70
2018-07-31T00:57:15.459Z,5.60
2018-07-31T00:58:15.477Z,5.80
2018-07-31T00:59:15.499Z,5.50
2018-07-31T01:00:15.519Z,5.30
2018-07-31T01:01:15.568Z,6.10
2018-07-31T01:02:15.577Z,5.90
2018-07-31T01:03:15.608Z,5.60
2018-07-31T01:04:15.604Z,5.10
2018-07-31T01:05:15.627Z,5.40
2018-07-31T01:06:15.656Z,5.60
2018-07-31T01:07:15.671Z,5.90
2018-07-31T01:08:15.725Z,5.70
2018-07-31T01:09:15.721Z,5.40
2018-07-31T01:10:15.764Z,5.30
2018-07-31T01:11:15.759Z,5.60
2018-07-31T01:12:15.804Z,6.00
2018-07-31T01:13:15.822Z,6.00
2018-07-31T01:14:15.835Z,5.50
2018-07-31T01:15:15.855Z,5.50
2018-07-31T01:16:15.894Z,5.30
2018-07-31T01:17:15.899Z,5.60
2018-07-31T01:18:15.915Z,5.60
2018-07-31T01:19:15.949Z,6.20
2018-07-31T01:20:15.963Z,5.80
2018-07-31T01:21:15.991Z,5.80
2018-07-31T01:22:16.011Z,5.70
2018-07-31T01:23:16.025Z,5.10
2018-07-31T01:24:16.050Z,6.00
2018-07-31T01:25:16.091Z,5.50
2018-07-31T01:26:16.094Z,5.30
2018-07-31T01:27:16.112Z,5.90
2018-07-31T01:28:16.136Z,6.40
2018-07-31T01:29:16.159Z,5.80
2018-07-31T01:30:16.196Z,5.90
2018-07-31T01:31:16.222Z,5.70
2018-07-31T01:32:16.242Z,6.20
2018-07-31T01:33:16.257Z,5.90
2018-07-31T01:34:16.278Z,5.30
2018-07-31T01:35:16.291Z,5.60
2018-07-31T01:36:16.310Z,5.90
2018-07-31T01:37:16.337Z,5.60
2018-07-31T01:38:16.356Z,6.20
2018-07-31T01:39:16.381Z,6.00
2018-07-31T01:40:16.397Z,6.00
2018-07-31T01:41:16.431Z,5.50
2018-07-31T01:42:16.444Z,5.30
2018-07-31T01:43:16.465Z,5.60
2018-07-31T01:44:16.497Z,5.60
2018-07-31T01:45:16.514Z,6.00
2018-07-31T01:46:16.536Z,5.30
2018-07-31T01:47:16.552Z,5.70
2018-07-31T01:48:16.580Z,5.90
2018-07-31T01:49:16.608Z,6.00
2018-07-31T01:50:16.632Z,5.80
2018-07-31T01:51:16.654Z,5.80
2018-07-31T01:52:16.670Z,5.70
2018-07-31T01:53:16.687Z,5.80
2018-07-31T01:54:16.713Z,6.00
2018-07-31T01:55:16.738Z,5.70
2018-07-31T01:56:16.766Z,6.10
2018-07-31T01:57:16.778Z,5.40
2018-07-31T01:58:16.798Z,5.90
2018-07-31T01:59:16.814Z,5.90
2018-07-31T02:00:16.849Z,5.70
2018-07-31T02:01:16.862Z,6.30
2018-07-31T02:02:16.886Z,5.40
2018-07-31T02:03:16.909Z,5.40
2018-07-31T02:04:16.931Z,5.90
2018-07-31T02:05:16.952Z,6.50
2018-07-31T02:06:17.001Z,6.10
2018-07-31T02:07:17.003Z,6.00
2018-07-31T02:08:17.019Z,5.60
2018-07-31T02:09:17.045Z,5.70
2018-07-31T02:10:17.060Z,5.90
2018-07-31T02:11:17.079Z,6.10
2018-07-31T02:12:17.104Z,6.00
2018-07-31T02:13:17.129Z,6.50
2018-07-31T02:14:17.142Z,5.60
2018-07-31T02:15:17.164Z,6.00
2018-07-31T02:16:17.187Z,6.40
2018-07-31T02:17:17.239Z,5.90
2018-07-31T02:18:17.231Z,6.10
2018-07-31T02:19:17.259Z,6.20
2018-07-31T02:20:17.278Z,6.30
2018-07-31T02:21:17.299Z,6.10
2018-07-31T02:22:17.325Z,6.00
2018-07-31T02:23:17.339Z,6.20
2018-07-31T02:24:17.363Z,5.80
2018-07-31T02:25:17.387Z,5.70
2018-07-31T02:26:17.407Z,6.00
2018-07-31T02:27:17.425Z,6.60
2018-07-31T02:28:17.474Z,5.90
2018-07-31T02:29:17.477Z,5.90
2018-07-31T02:30:17.492Z,6.10
2018-07-31T02:31:17.532Z,6.40
2018-07-31T02:32:17.535Z,6.50
2018-07-31T02:33:17.565Z,6.40
2018-07-31T02:34:17.577Z,6.00
2018-07-31T02:35:17.607Z,5.70
2018-07-31T02:36:17.627Z,6.00
2018-07-31T02:37:17.652Z,6.70
2018-07-31T02:38:17.671Z,5.50
2018-07-31T02:39:17.718Z,6.10
2018-07-31T02:40:17.726Z,6.70
2018-07-31T02:41:17.733Z,6.50
2018-07-31T02:42:17.759Z,6.20
2018-07-31T02:43:17.773Z,5.50
2018-07-31T02:44:17.796Z,6.30
2018-07-31T02:45:17.840Z,6.30
2018-07-31T02:46:17.861Z,6.10
2018-07-31T02:47:17.864Z,6.00
2018-07-31T02:48:17.894Z,6.10
2018-07-31T02:49:17.905Z,6.50
2018-07-31T02:50:17.941Z,6.30
2018-07-31T02:51:17.967Z,5.90
2018-07-31T02:52:17.970Z,6.20
2018-07-31T02:53:17.998Z,6.30
2018-07-31T02:54:18.017Z,5.80
2018-07-31T02:55:18.041Z,6.40
2018-07-31T02:56:18.058Z,5.90
2018-07-31T02:57:18.091Z,6.30
2018-07-31T02:58:18.125Z,6.20
2018-07-31T02:59:18.133Z,5.70
2018-07-31T03:00:18.148Z,5.80
2018-07-31T03:01:18.163Z,5.70
2018-07-31T03:02:18.196Z,6.30
2018-07-31T03:03:18.205Z,6.10
2018-07-31T03:04:18.230Z,6.40
2018-07-31T03:05:18.250Z,6.40
2018-07-31T03:06:18.298Z,6.20
2018-07-31T03:07:18.299Z,6.30
2018-07-31T03:08:18.397Z,6.10
2018-07-31T03:09:18.341Z,6.40
2018-07-31T03:10:18.364Z,6.00
2018-07-31T03:11:18.393Z,6.70
2018-07-31T03:12:18.403Z,6.50
2018-07-31T03:13:18.422Z,6.20
2018-07-31T03:14:18.442Z,6.00
2018-07-31T03:15:18.489Z,6.50
2018-07-31T03:16:18.491Z,6.50
2018-07-31T03:17:18.534Z,6.50
2018-07-31T03:18:18.532Z,6.30
2018-07-31T03:19:18.547Z,6.30
2018-07-31T03:20:18.584Z,6.20
2018-07-31T03:21:18.596Z,6.40
2018-07-31T03:22:18.611Z,6.50
2018-07-31T03:23:18.640Z,6.50
2018-07-31T03:24:18.656Z,6.20
2018-07-31T03:25:18.678Z,6.30
2018-07-31T03:26:18.702Z,7.50
2018-07-31T03:27:18.720Z,6.50
2018-07-31T03:28:18.819Z,6.40
2018-07-31T03:29:18.765Z,6.00
2018-07-31T03:30:18.801Z,6.70
2018-07-31T03:31:18.819Z,6.10
2018-07-31T03:32:18.838Z,6.90
2018-07-31T03:33:18.848Z,6.40
2018-07-31T03:34:18.875Z,6.10
2018-07-31T03:35:18.901Z,6.60
2018-07-31T03:36:18.923Z,6.80
2018-07-31T03:37:18.944Z,6.60
2018-07-31T03:38:18.957Z,6.70
2018-07-31T03:39:18.973Z,7.10
2018-07-31T03:40:19.003Z,6.40
2018-07-31T03:41:19.020Z,6.30
2018-07-31T03:42:19.061Z,6.40
2018-07-31T03:43:19.063Z,6.40
2018-07-31T03:44:19.088Z,7.40
2018-07-31T03:45:19.107Z,7.40
2018-07-31T03:46:19.133Z,6.90
2018-07-31T03:47:19.152Z,6.80
2018-07-31T03:48:19.175Z,7.20
2018-07-31T03:49:19.194Z,6.50
2018-07-31T03:50:19.215Z,6.60
2018-07-31T03:51:19.240Z,6.90
2018-07-31T03:52:19.262Z,6.80
2018-07-31T03:53:19.303Z,6.70
2018-07-31T03:54:19.301Z,6.60
2018-07-31T03:55:19.376Z,6.80
2018-07-31T03:56:19.383Z,6.60
2018-07-31T03:57:19.371Z,6.70
2018-07-31T03:58:19.395Z,6.90
2018-07-31T03:59:19.403Z,6.50
2018-07-31T04:00:19.451Z,6.90
2018-07-31T04:01:19.454Z,6.90
2018-07-31T04:02:19.481Z,6.50
2018-07-31T04:03:19.489Z,6.70
2018-07-31T04:04:19.512Z,6.70
2018-07-31T04:05:19.541Z,6.40
2018-07-31T04:06:19.567Z,6.70
2018-07-31T04:07:19.575Z,7.10
2018-07-31T04:08:19.598Z,7.20
2018-07-31T04:09:19.620Z,6.90
2018-07-31T04:10:19.645Z,6.80
2018-07-31T04:11:19.668Z,7.50
2018-07-31T04:12:19.690Z,7.00
2018-07-31T04:13:19.704Z,7.00
2018-07-31T04:14:19.734Z,7.10
2018-07-31T04:15:19.743Z,6.90
2018-07-31T04:16:19.768Z,6.30
2018-07-31T04:17:19.798Z,7.20
2018-07-31T04:18:19.816Z,6.90
2018-07-31T04:19:19.833Z,7.30
2018-07-31T04:20:19.854Z,7.40
2018-07-31T04:21:19.876Z,7.00
2018-07-31T04:22:19.908Z,7.50
2018-07-31T04:23:19.917Z,6.60
2018-07-31T04:24:19.947Z,7.10
2018-07-31T04:25:19.968Z,6.70
2018-07-31T04:26:19.996Z,7.40
2018-07-31T04:27:20.015Z,7.60
2018-07-31T04:28:20.026Z,7.80
2018-07-31T04:29:20.046Z,7.90
2018-07-31T04:30:20.069Z,7.30
2018-07-31T04:31:20.087Z,7.60
2018-07-31T04:32:20.116Z,7.20
2018-07-31T04:33:20.151Z,7.50
2018-07-31T04:34:20.157Z,6.90
2018-07-31T04:35:20.186Z,7.30
2018-07-31T04:36:20.199Z,6.90
2018-07-31T04:37:20.230Z,6.80
2018-07-31T04:38:20.243Z,7.20
2018-07-31T04:39:20.262Z,7.20
2018-07-31T04:40:20.286Z,6.90
2018-07-31T04:41:20.366Z,7.90
2018-07-31T04:42:20.361Z,7.10
2018-07-31T04:43:20.348Z,7.70
2018-07-31T04:44:20.372Z,6.80
2018-07-31T04:45:20.393Z,7.40
2018-07-31T04:46:20.415Z,7.30
2018-07-31T04:47:20.435Z,7.80
2018-07-31T04:48:20.460Z,7.10
2018-07-31T04:49:20.501Z,7.00
2018-07-31T04:50:20.539Z,6.90
2018-07-31T04:51:20.530Z,7.10
2018-07-31T04:52:20.544Z,7.30
2018-07-31T04:53:20.561Z,7.20
2018-07-31T04:54:20.594Z,6.90
2018-07-31T04:55:20.611Z,7.10
2018-07-31T04:56:20.628Z,7.30
2018-07-31T04:57:20.679Z,7.00
2018-07-31T04:58:20.678Z,7.00
2018-07-31T04:59:20.702Z,7.90
2018-07-31T05:00:20.719Z,6.80
2018-07-31T05:01:20.736Z,6.60
2018-07-31T05:02:20.776Z,7.10
2018-07-31T05:03:20.786Z,6.70
2018-07-31T05:04:20.813Z,6.90
2018-07-31T05:05:20.832Z,7.10
2018-07-31T05:06:20.853Z,7.20
2018-07-31T05:07:20.873Z,6.20
2018-07-31T05:08:20.905Z,8.10
2018-07-31T05:09:20.937Z,7.00
2018-07-31T05:10:20.947Z,6.60
2018-07-31T05:11:20.968Z,6.80
2018-07-31T05:12:20.996Z,6.30
2018-07-31T05:13:21.028Z,6.60
2018-07-31T05:14:21.045Z,6.10
2018-07-31T05:15:21.079Z,6.40
2018-07-31T05:16:21.100Z,5.80
2018-07-31T05:17:21.125Z,6.80
2018-07-31T05:18:21.221Z,5.90
2018-07-31T05:19:21.192Z,6.10
2018-07-31T05:20:21.209Z,6.10
2018-07-31T05:21:21.232Z,6.30
2018-07-31T05:22:21.262Z,6.40
2018-07-31T05:23:21.280Z,6.60
2018-07-31T05:24:21.323Z,6.70
2018-07-31T05:25:21.397Z,5.90
2018-07-31T05:26:21.375Z,5.70
2018-07-31T05:27:21.393Z,5.70
2018-07-31T05:28:21.423Z,6.70
2018-07-31T05:29:21.449Z,5.90
2018-07-31T05:30:21.482Z,5.60
2018-07-31T05:31:21.498Z,5.50
2018-07-31T05:32:21.528Z,6.00
2018-07-31T05:33:21.565Z,5.60
2018-07-31T05:34:21.585Z,5.50
2018-07-31T05:35:21.610Z,5.60
2018-07-31T05:36:21.659Z,6.10
2018-07-31T05:37:21.673Z,5.60
2018-07-31T05:38:21.695Z,5.40
2018-07-31T05:39:21.732Z,5.50
2018-07-31T05:40:21.757Z,5.80
2018-07-31T05:41:21.796Z,5.50
2018-07-31T05:42:21.828Z,5.40
2018-07-31T05:43:21.847Z,5.40
2018-07-31T05:44:21.872Z,5.30
2018-07-31T05:45:21.914Z,5.70
2018-07-31T05:46:21.937Z,6.10
2018-07-31T05:47:21.973Z,5.40
2018-07-31T05:48:21.994Z,5.10
2018-07-31T05:49:22.019Z,5.20
2018-07-31T05:50:22.070Z,5.00
2018-07-31T05:51:22.098Z,4.90
2018-07-31T05:52:22.118Z,5.60
2018-07-31T05:53:22.139Z,5.00
2018-07-31T05:54:22.167Z,5.10
2018-07-31T05:55:22.201Z,5.30
2018-07-31T05:56:22.230Z,5.00
2018-07-31T05:57:22.264Z,5.00
2018-07-31T05:58:22.309Z,5.30
2018-07-31T05:59:22.325Z,5.50
2018-07-31T06:00:22.363Z,5.10
2018-07-31T06:01:22.386Z,4.90
2018-07-31T06:02:22.423Z,4.80
2018-07-31T06:03:22.457Z,5.10
2018-07-31T06:04:22.477Z,5.40
2018-07-31T06:05:22.512Z,5.30
2018-07-31T06:06:22.535Z,4.90
2018-07-31T06:07:22.566Z,5.40
2018-07-31T06:08:22.598Z,4.90
2018-07-31T06:09:22.629Z,5.20
2018-07-31T06:10:22.659Z,4.80
2018-07-31T06:11:22.704Z,5.00
2018-07-31T06:12:22.737Z,4.70
2018-07-31T06:13:22.752Z,5.20
2018-07-31T06:14:22.790Z,4.70
2018-07-31T06:15:22.858Z,4.70
2018-07-31T06:16:22.847Z,4.70
2018-07-31T06:17:22.879Z,4.60
2018-07-31T06:18:22.912Z,5.10
2018-07-31T06:19:22.961Z,4.50
2018-07-31T06:20:22.988Z,4.90
2018-07-31T06:21:23.005Z,4.70
2018-07-31T06:22:23.045Z,4.70
2018-07-31T06:23:23.069Z,4.40
2018-07-31T06:24:23.097Z,4.20
2018-07-31T06:25:23.140Z,4.20
2018-07-31T06:26:23.166Z,4.70
2018-07-31T06:27:23.197Z,5.00
2018-07-31T06:28:23.224Z,4.90
2018-07-31T06:29:23.260Z,4.60
2018-07-31T06:30:23.293Z,4.60
2018-07-31T06:31:23.324Z,4.00
2018-07-31T06:32:23.364Z,4.60
2018-07-31T06:33:23.384Z,4.50
2018-07-31T06:34:23.415Z,4.60
2018-07-31T06:35:23.459Z,4.90
2018-07-31T06:36:23.478Z,4.00
2018-07-31T06:37:23.506Z,4.20
2018-07-31T06:38:23.547Z,4.50
2018-07-31T06:39:23.577Z,4.10
2018-07-31T06:40:23.662Z,5.00
2018-07-31T06:41:23.638Z,4.40
2018-07-31T06:42:23.666Z,4.00
2018-07-31T06:43:23.755Z,4.20
2018-07-31T06:44:23.736Z,4.60
2018-07-31T06:45:23.784Z,3.90
2018-07-31T06:46:23.796Z,4.20
2018-07-31T06:47:23.860Z,4.50
2018-07-31T06:48:23.861Z,4.00
2018-07-31T06:49:23.952Z,3.80
2018-07-31T06:50:23.938Z,3.90
2018-07-31T06:51:23.959Z,3.80
2018-07-31T06:52:24.000Z,3.80
2018-07-31T06:53:24.041Z,3.60
2018-07-31T06:54:24.058Z,3.40
2018-07-31T06:55:24.091Z,3.80
2018-07-31T06:56:24.133Z,3.80
2018-07-31T06:57:24.154Z,3.40
2018-07-31T06:58:24.186Z,3.60
2018-07-31T06:59:24.215Z,4.20
2018-07-31T07:00:24.262Z,3.70
2018-07-31T07:01:24.291Z,3.70
2018-07-31T07:02:24.338Z,4.00
2018-07-31T07:03:24.350Z,3.70
2018-07-31T07:04:24.388Z,3.40
2018-07-31T07:05:24.408Z,3.70
2018-07-31T07:06:24.461Z,3.70
2018-07-31T07:07:24.473Z,3.40
2018-07-31T07:08:24.519Z,3.30
2018-07-31T07:09:24.611Z,3.40
2018-07-31T07:10:24.577Z,3.70
2018-07-31T07:11:24.605Z,3.60
2018-07-31T07:12:24.643Z,3.80
2018-07-31T07:13:24.668Z,3.30
2018-07-31T07:14:24.698Z,3.30
2018-07-31T07:15:24.760Z,3.50
2018-07-31T07:16:24.772Z,3.10
2018-07-31T07:17:24.801Z,3.60
2018-07-31T07:18:24.831Z,3.70
2018-07-31T07:19:24.869Z,3.50
2018-07-31T07:20:24.910Z,3.60
2018-07-31T07:21:24.933Z,3.40
2018-07-31T07:22:24.968Z,3.60
2018-07-31T07:23:24.996Z,3.50
2018-07-31T07:24:25.032Z,3.50
2018-07-31T07:25:25.059Z,3.50
2018-07-31T07:26:25.091Z,3.50
2018-07-31T07:27:25.120Z,3.30
2018-07-31T07:28:25.157Z,3.60
2018-07-31T07:29:25.189Z,3.70
2018-07-31T07:30:25.220Z,3.50
2018-07-31T07:31:25.252Z,3.20
2018-07-31T07:32:25.291Z,3.50
2018-07-31T07:33:25.315Z,3.10
2018-07-31T07:34:25.370Z,3.20
2018-07-31T07:35:25.389Z,3.20
2018-07-31T07:36:25.422Z,3.30
2018-07-31T07:37:25.447Z,3.50
2018-07-31T07:38:25.506Z,3.10
2018-07-31T07:39:25.523Z,3.10
2018-07-31T07:40:25.547Z,3.40
2018-07-31T07:41:25.589Z,3.30
2018-07-31T07:42:25.612Z,3.00
2018-07-31T07:43:25.651Z,3.10
2018-07-31T07:44:25.693Z,3.30
2018-07-31T07:45:25.711Z,2.90
2018-07-31T07:46:25.746Z,3.40
2018-07-31T07:47:25.801Z,3.30
2018-07-31T07:48:25.859Z,3.10
2018-07-31T07:49:25.877Z,3.30
2018-07-31T07:50:25.898Z,3.10
2018-07-31T07:51:25.904Z,3.10
2018-07-31T07:52:25.940Z,3.40
2018-07-31T07:53:25.984Z,3.20
2018-07-31T07:54:26.025Z,3.10
2018-07-31T07:55:26.045Z,3.20
2018-07-31T07:56:26.063Z,3.10
2018-07-31T07:57:26.102Z,3.20
2018-07-31T07:58:26.144Z,3.50
2018-07-31T07:59:26.163Z,3.30
2018-07-31T08:00:26.192Z,3.10
2018-07-31T08:01:26.225Z,3.10
2018-07-31T08:02:26.262Z,3.10
2018-07-31T08:03:26.285Z,3.10
2018-07-31T08:04:26.324Z,3.20
2018-07-31T08:05:26.364Z,3.40
2018-07-31T08:06:26.384Z,3.40
2018-07-31T08:07:26.428Z,3.00
2018-07-31T08:08:26.450Z,3.30
2018-07-31T08:09:26.491Z,3.20
2018-07-31T08:10:26.531Z,3.30
2018-07-31T08:11:26.550Z,3.50
2018-07-31T08:12:26.574Z,3.20
2018-07-31T08:13:26.625Z,3.10
2018-07-31T08:14:26.648Z,3.20
2018-07-31T08:15:26.679Z,2.90
2018-07-31T08:16:26.731Z,3.40
2018-07-31T08:17:26.742Z,3.10
2018-07-31T08:18:26.773Z,3.00
2018-07-31T08:19:26.810Z,3.30
2018-07-31T08:20:26.887Z,2.90
2018-07-31T08:21:26.874Z,3.00
2018-07-31T08:22:26.905Z,3.10
2018-07-31T08:23:26.971Z,3.00
2018-07-31T08:24:26.971Z,3.10
2018-07-31T08:25:27.000Z,3.00
2018-07-31T08:26:27.027Z,3.40
2018-07-31T08:27:27.073Z,3.20
2018-07-31T08:28:27.100Z,3.30
2018-07-31T08:29:27.135Z,2.80
2018-07-31T08:30:27.164Z,2.90
2018-07-31T08:31:27.194Z,2.80
2018-07-31T08:32:27.220Z,3.10
2018-07-31T08:33:27.305Z,3.10
2018-07-31T08:34:27.349Z,3.30
2018-07-31T08:35:27.317Z,3.00
2018-07-31T08:36:27.359Z,3.30
2018-07-31T08:37:27.383Z,3.30
2018-07-31T08:38:27.413Z,3.30
2018-07-31T08:39:27.447Z,2.90
2018-07-31T08:40:27.471Z,3.00
2018-07-31T08:41:27.527Z,3.40
2018-07-31T08:42:27.568Z,3.10
2018-07-31T08:43:27.571Z,3.70
2018-07-31T08:44:27.592Z,3.30
2018-07-31T08:45:27.649Z,3.30
2018-07-31T08:46:27.655Z,3.40
2018-07-31T08:47:27.686Z,3.70
2018-07-31T08:48:27.759Z,3.30
2018-07-31T08:49:27.760Z,3.30
2018-07-31T08:50:27.775Z,3.80
2018-07-31T08:51:27.811Z,3.50
2018-07-31T08:52:27.837Z,3.60
2018-07-31T08:53:27.882Z,3.70
2018-07-31T08:54:27.898Z,3.70
2018-07-31T08:55:27.920Z,4.00
2018-07-31T08:56:27.954Z,3.80
2018-07-31T08:57:27.979Z,4.20
2018-07-31T08:58:28.011Z,4.10
2018-07-31T08:59:28.040Z,3.70
2018-07-31T09:00:28.073Z,3.80
2018-07-31T09:01:28.112Z,3.60
2018-07-31T09:02:28.132Z,3.50
2018-07-31T09:03:28.203Z,3.90
2018-07-31T09:04:28.192Z,4.20
2018-07-31T09:05:28.212Z,3.50
2018-07-31T09:06:28.247Z,3.90
2018-07-31T09:07:28.267Z,3.70
2018-07-31T09:08:28.464Z,3.70
2018-07-31T09:09:28.334Z,4.00
2018-07-31T09:10:28.364Z,4.00
2018-07-31T09:11:28.386Z,4.00
2018-07-31T09:12:28.414Z,3.90
2018-07-31T09:13:28.439Z,3.90
2018-07-31T09:14:28.484Z,3.70
2018-07-31T09:15:28.502Z,3.80
2018-07-31T09:16:28.535Z,4.20
2018-07-31T09:17:28.579Z,3.60
2018-07-31T09:18:28.586Z,3.90
2018-07-31T09:19:28.640Z,4.00
2018-07-31T09:20:28.640Z,3.70
2018-07-31T09:21:28.665Z,3.80
2018-07-31T09:22:28.691Z,3.50
2018-07-31T09:23:28.722Z,3.90
2018-07-31T09:24:28.761Z,3.90
2018-07-31T09:25:28.781Z,3.80
2018-07-31T09:26:28.816Z,3.70
2018-07-31T09:27:28.834Z,3.40
2018-07-31T09:28:28.892Z,4.00
2018-07-31T09:29:28.917Z,3.90
2018-07-31T09:30:29.037Z,3.70
2018-07-31T09:31:28.950Z,3.70
2018-07-31T09:32:28.980Z,3.80
2018-07-31T09:33:29.024Z,3.90
2018-07-31T09:34:29.050Z,3.60
2018-07-31T09:35:29.060Z,4.00
2018-07-31T09:36:29.149Z,3.30
2018-07-31T09:37:29.123Z,3.60
2018-07-31T09:38:29.146Z,3.80
2018-07-31T09:39:29.178Z,3.70
2018-07-31T09:40:29.202Z,3.50
2018-07-31T09:41:29.238Z,3.80
2018-07-31T09:42:29.275Z,3.50
2018-07-31T09:43:29.320Z,3.70
2018-07-31T09:44:29.318Z,3.90
2018-07-31T09:45:29.351Z,3.40
2018-07-31T09:46:29.380Z,3.60
2018-07-31T09:47:29.409Z,3.30
2018-07-31T09:48:29.494Z,3.30
2018-07-31T09:49:29.477Z,3.50
2018-07-31T09:50:29.494Z,3.30
2018-07-31T09:51:29.514Z,3.70
2018-07-31T09:52:29.552Z,3.40
2018-07-31T09:53:29.573Z,3.50
2018-07-31T09:54:29.610Z,3.10
2018-07-31T09:55:29.635Z,3.60
2018-07-31T09:56:29.661Z,3.10
2018-07-31T09:57:29.710Z,3.40
2018-07-31T09:58:29.727Z,3.10
2018-07-31T09:59:29.750Z,3.30
2018-07-31T10:00:29.800Z,3.40
2018-07-31T10:01:29.806Z,3.30
2018-07-31T10:02:29.828Z,3.30
2018-07-31T10:03:29.855Z,3.80
2018-07-31T10:04:29.891Z,3.00
2018-07-31T10:05:29.923Z,3.60
2018-07-31T10:06:29.945Z,3.30
2018-07-31T10:07:29.970Z,3.40
2018-07-31T10:08:30.005Z,3.50
2018-07-31T10:09:30.038Z,3.50
2018-07-31T10:10:30.072Z,3.30
2018-07-31T10:11:30.078Z,3.50
2018-07-31T10:12:30.114Z,3.60
2018-07-31T10:13:30.138Z,3.10
2018-07-31T10:14:30.171Z,2.80
2018-07-31T10:15:30.201Z,2.90
2018-07-31T10:16:30.220Z,3.40
2018-07-31T10:17:30.262Z,3.00
2018-07-31T10:18:30.286Z,2.80
2018-07-31T10:19:30.313Z,2.70
2018-07-31T10:20:30.342Z,2.80
2018-07-31T10:21:30.370Z,3.00
2018-07-31T10:22:30.396Z,2.80
2018-07-31T10:23:30.420Z,2.80
2018-07-31T10:24:30.470Z,2.80
2018-07-31T10:25:30.484Z,3.10
2018-07-31T10:26:30.513Z,3.00
2018-07-31T10:27:30.538Z,3.00
2018-07-31T10:28:30.573Z,2.90
2018-07-31T10:29:30.595Z,2.80
2018-07-31T10:30:30.636Z,2.90
2018-07-31T10:31:30.654Z,2.70
2018-07-31T10:32:30.685Z,2.80
2018-07-31T10:33:30.712Z,2.80
2018-07-31T10:34:30.742Z,2.60
2018-07-31T10:35:30.780Z,3.00
2018-07-31T10:36:30.800Z,2.70
2018-07-31T10:37:30.840Z,3.40
2018-07-31T10:38:30.853Z,3.40
2018-07-31T10:39:30.895Z,3.00
2018-07-31T10:40:30.907Z,3.90
2018-07-31T10:41:30.941Z,3.00
2018-07-31T10:42:30.988Z,2.80
2018-07-31T10:43:31.008Z,2.90
2018-07-31T10:44:31.028Z,3.10
2018-07-31T10:45:31.061Z,3.10
2018-07-31T10:46:31.081Z,3.10
2018-07-31T10:47:31.113Z,3.10
2018-07-31T10:48:31.136Z,3.10
2018-07-31T10:49:31.174Z,3.20
2018-07-31T10:50:31.227Z,3.20
2018-07-31T10:51:31.237Z,2.80
2018-07-31T10:52:31.258Z,2.90
2018-07-31T10:53:31.290Z,3.30
2018-07-31T10:54:31.310Z,2.90
2018-07-31T10:55:31.335Z,2.90
2018-07-31T10:56:31.373Z,3.20
2018-07-31T10:57:31.404Z,2.80
2018-07-31T10:58:31.495Z,3.10
2018-07-31T10:59:31.477Z,2.80
2018-07-31T11:00:31.483Z,2.70
2018-07-31T11:01:31.508Z,3.20
2018-07-31T11:02:31.545Z,5.10
2018-07-31T11:03:31.568Z,3.10
2018-07-31T11:04:31.602Z,2.70
2018-07-31T11:05:31.624Z,2.70
2018-07-31T11:06:31.726Z,2.60
2018-07-31T11:07:31.696Z,2.50
2018-07-31T11:08:31.711Z,3.00
2018-07-31T11:09:31.762Z,2.80
2018-07-31T11:10:31.768Z,3.30
2018-07-31T11:11:31.796Z,2.80
2018-07-31T11:12:31.823Z,2.90
2018-07-31T11:13:31.857Z,2.60
2018-07-31T11:14:31.895Z,2.90
2018-07-31T11:15:31.915Z,2.70
2018-07-31T11:16:31.947Z,3.10
2018-07-31T11:17:31.980Z,2.40
2018-07-31T11:18:31.999Z,2.30
2018-07-31T11:19:32.033Z,2.90
2018-07-31T11:20:32.064Z,2.90
2018-07-31T11:21:32.094Z,2.60
2018-07-31T11:22:32.114Z,2.80
2018-07-31T11:23:32.161Z,2.70
2018-07-31T11:24:32.195Z,2.60
2018-07-31T11:25:32.203Z,2.70
2018-07-31T11:26:32.227Z,2.80
2018-07-31T11:27:32.305Z,3.10
2018-07-31T11:28:32.305Z,2.80
2018-07-31T11:29:32.315Z,2.40
2018-07-31T11:30:32.360Z,2.40
2018-07-31T11:31:32.374Z,2.60
2018-07-31T11:32:32.405Z,2.40
2018-07-31T11:33:32.443Z,3.10
2018-07-31T11:34:32.466Z,2.90
2018-07-31T11:35:32.491Z,2.90
2018-07-31T11:36:32.523Z,3.20
2018-07-31T11:37:32.558Z,2.40
2018-07-31T11:38:32.600Z,3.00
2018-07-31T11:39:32.639Z,2.40
2018-07-31T11:40:32.650Z,2.90
2018-07-31T11:41:32.678Z,2.90
2018-07-31T11:42:32.693Z,2.60
2018-07-31T11:43:32.733Z,2.70
2018-07-31T11:44:32.753Z,2.70
2018-07-31T11:45:32.784Z,2.50
2018-07-31T11:46:32.814Z,2.90
2018-07-31T11:47:32.845Z,2.70
2018-07-31T11:48:32.870Z,2.40
2018-07-31T11:49:32.902Z,2.90
2018-07-31T11:50:32.929Z,2.80
2018-07-31T11:51:32.957Z,2.70
2018-07-31T11:52:32.978Z,2.80
2018-07-31T11:53:33.014Z,2.50
2018-07-31T11:54:33.046Z,2.60
2018-07-31T11:55:33.068Z,2.90
2018-07-31T11:56:33.102Z,2.50
2018-07-31T11:57:33.124Z,2.70
2018-07-31T11:58:33.166Z,2.60
2018-07-31T11:59:33.184Z,2.60
2018-07-31T12:00:33.224Z,2.70
2018-07-31T12:01:33.241Z,2.50
2018-07-31T12:02:33.267Z,2.90
2018-07-31T12:03:33.291Z,2.50
2018-07-31T12:04:33.374Z,2.90
2018-07-31T12:05:33.368Z,2.60
2018-07-31T12:06:33.384Z,2.40
2018-07-31T12:07:33.406Z,2.50
2018-07-31T12:08:33.443Z,2.40
2018-07-31T12:09:33.485Z,2.80
2018-07-31T12:10:33.497Z,2.60
2018-07-31T12:11:33.567Z,2.90
2018-07-31T12:12:33.552Z,2.60
2018-07-31T12:13:33.583Z,2.80
2018-07-31T12:14:33.627Z,2.50
2018-07-31T12:15:33.665Z,2.50
2018-07-31T12:16:33.673Z,2.50
2018-07-31T12:17:33.704Z,2.50
2018-07-31T12:18:33.734Z,2.30
2018-07-31T12:19:33.755Z,2.70
2018-07-31T12:20:33.790Z,2.60
2018-07-31T12:21:33.828Z,2.70
2018-07-31T12:22:33.847Z,2.70
2018-07-31T12:23:33.861Z,2.60
2018-07-31T12:24:33.904Z,2.60
2018-07-31T12:25:33.919Z,2.70
2018-07-31T12:26:33.951Z,2.60
2018-07-31T12:27:33.979Z,2.80
2018-07-31T12:28:34.016Z,2.80
2018-07-31T12:29:34.036Z,2.50
2018-07-31T12:30:34.075Z,2.60
2018-07-31T12:31:34.098Z,3.10
2018-07-31T12:32:34.117Z,2.70
2018-07-31T12:33:34.147Z,3.20
2018-07-31T12:34:34.190Z,2.80
2018-07-31T12:35:34.213Z,2.60
2018-07-31T12:36:34.252Z,2.80
2018-07-31T12:37:34.272Z,2.70
2018-07-31T12:38:34.404Z,3.00
2018-07-31T12:39:34.321Z,3.10
2018-07-31T12:40:34.347Z,3.10
2018-07-31T12:41:34.390Z,2.60
2018-07-31T12:42:34.414Z,3.00
2018-07-31T12:43:34.429Z,2.80
2018-07-31T12:44:34.464Z,3.30
2018-07-31T12:45:34.512Z,2.70
2018-07-31T12:46:34.516Z,3.10
2018-07-31T12:47:34.562Z,3.00
2018-07-31T12:48:34.630Z,2.70
2018-07-31T12:49:34.606Z,2.60
2018-07-31T12:50:34.655Z,2.80
2018-07-31T12:51:34.665Z,2.90
2018-07-31T12:52:34.700Z,3.00
2018-07-31T12:53:34.713Z,3.10
2018-07-31T12:54:34.740Z,3.00
2018-07-31T12:55:34.772Z,2.80
2018-07-31T12:56:34.802Z,2.90
2018-07-31T12:57:34.826Z,3.00
2018-07-31T12:58:34.857Z,2.70
2018-07-31T12:59:34.886Z,3.80
2018-07-31T13:00:34.910Z,3.70
2018-07-31T13:01:34.956Z,2.90
2018-07-31T13:02:34.978Z,3.10
2018-07-31T13:03:35.003Z,4.00
2018-07-31T13:04:35.026Z,6.50
2018-07-31T13:05:35.055Z,4.20
2018-07-31T13:06:35.100Z,5.00
2018-07-31T13:07:35.117Z,4.50
2018-07-31T13:08:35.136Z,2.90
2018-07-31T13:09:35.168Z,3.10
2018-07-31T13:10:35.207Z,2.90
2018-07-31T13:11:35.223Z,2.80
2018-07-31T13:12:35.280Z,3.20
2018-07-31T13:13:35.293Z,3.00
2018-07-31T13:14:35.313Z,2.90
2018-07-31T13:15:35.333Z,3.10
2018-07-31T13:16:35.363Z,2.80
2018-07-31T13:17:35.400Z,2.90
2018-07-31T13:18:35.420Z,2.60